Time;durP1;ratioP1;P1;durP2;ratioP2;P2;SDS_P1;SDS_P2;PMS_P1;PMS_P2;Temp;Humidity;BMP_temperature;BMP_pressure;BME280_temperature;BME280_humidity;BME280_pressure;Samples;Min_cycle;Max_cycle;Signal;HPM_P1;HPM_P2
2024/02/01 00:00:55;;;;;;;33.53;21.95;;;23.60;40.30;;;;;;6151327;28;83310;-67
2024/02/01 00:03:56;;;;;;;32.00;21.17;;;23.60;40.10;;;;;;6169958;28;82969;-67
2024/02/01 00:06:56;;;;;;;30.98;20.33;;;23.50;40.10;;;;;;6173426;28;83325;-67
2024/02/01 00:09:56;;;;;;;33.53;20.50;;;23.50;40.10;;;;;;6159612;28;87039;-67
2024/02/01 00:12:57;;;;;;;31.75;21.77;;;23.50;40.10;;;;;;6167695;28;83624;-68
2024/02/01 00:15:58;;;;;;;32.00;22.02;;;23.50;40.20;;;;;;6152145;28;83147;-68
2024/02/01 00:18:58;;;;;;;35.38;21.83;;;23.50;40.10;;;;;;6149840;28;83568;-53
2024/02/01 00:21:59;;;;;;;31.08;20.45;;;23.50;40.20;;;;;;6151728;28;83066;-50
2024/02/01 00:24:59;;;;;;;34.72;21.63;;;23.50;40.40;;;;;;6151532;28;83919;-50
2024/02/01 00:28:01;;;;;;;34.80;21.08;;;23.50;40.20;;;;;;6151177;28;84183;-53
2024/02/01 00:31:01;;;;;;;34.25;21.40;;;23.50;40.50;;;;;;6152921;28;82942;-54
2024/02/01 00:34:02;;;;;;;33.13;21.83;;;23.50;40.10;;;;;;6162274;28;83669;-53
2024/02/01 00:37:02;;;;;;;29.38;20.10;;;23.50;40.20;;;;;;6158982;28;83546;-62
2024/02/01 00:40:03;;;;;;;32.03;20.95;;;23.50;40.10;;;;;;6150433;28;83392;-62
2024/02/01 00:43:03;;;;;;;33.15;21.13;;;23.50;40.10;;;;;;6151288;28;83440;-62
2024/02/01 00:46:04;;;;;;;31.98;21.13;;;23.50;40.10;;;;;;6150177;28;83480;-63
2024/02/01 00:49:04;;;;;;;30.55;19.85;;;23.50;40.10;;;;;;6150959;28;83829;-63
2024/02/01 00:52:05;;;;;;;29.95;20.15;;;23.50;40.10;;;;;;6163261;28;84453;-62
2024/02/01 00:55:05;;;;;;;32.83;21.10;;;23.50;40.10;;;;;;6150504;28;83104;-49
2024/02/01 00:58:06;;;;;;;33.15;21.85;;;23.50;40.20;;;;;;6149635;28;83544;-49
2024/02/01 01:01:06;;;;;;;30.38;21.08;;;23.50;40.10;;;;;;6148804;28;83435;-50
2024/02/01 01:04:07;;;;;;;31.70;20.67;;;23.50;40.10;;;;;;6149124;28;87496;-56
2024/02/01 01:07:07;;;;;;;35.05;21.95;;;23.50;40.10;;;;;;6163544;28;83329;-51
2024/02/01 01:10:08;;;;;;;34.38;21.88;;;23.50;40.10;;;;;;6149633;28;84326;-51
2024/02/01 01:13:08;;;;;;;35.28;21.42;;;23.50;40.00;;;;;;6150825;28;82965;-53
2024/02/01 01:16:09;;;;;;;35.05;21.67;;;23.50;40.20;;;;;;6153310;28;83621;-48
2024/02/01 01:19:09;;;;;;;32.40;20.92;;;23.50;40.30;;;;;;6171775;28;83347;-49
2024/02/01 01:22:10;;;;;;;32.05;19.80;;;23.50;40.40;;;;;;6172505;28;83440;-49
2024/02/01 01:25:10;;;;;;;31.48;20.20;;;23.50;40.40;;;;;;6149676;28;83008;-49
2024/02/01 01:28:11;;;;;;;29.15;20.00;;;23.50;40.30;;;;;;6159821;28;82893;-50
2024/02/01 01:31:11;;;;;;;30.77;19.25;;;23.50;40.40;;;;;;6171998;28;83067;-50
2024/02/01 01:34:12;;;;;;;32.88;20.80;;;23.50;40.50;;;;;;6172763;28;84468;-53
2024/02/01 01:37:12;;;;;;;34.38;21.45;;;23.50;40.50;;;;;;6172325;28;83044;-52
2024/02/01 01:40:13;;;;;;;34.90;20.73;;;23.50;40.40;;;;;;6169637;28;82797;-51
2024/02/01 01:43:13;;;;;;;34.55;22.05;;;23.50;40.30;;;;;;6149515;28;83690;-47
2024/02/01 01:46:14;;;;;;;32.70;21.27;;;23.50;40.40;;;;;;6148682;28;83947;-48
2024/02/01 01:49:14;;;;;;;33.20;20.58;;;23.50;40.50;;;;;;6171442;28;82982;-50
2024/02/01 01:52:15;;;;;;;33.25;21.30;;;23.50;40.40;;;;;;6171697;28;84375;-49
2024/02/01 01:55:15;;;;;;;32.83;21.17;;;23.50;40.40;;;;;;6172946;28;83179;-49
2024/02/01 01:58:16;;;;;;;35.28;21.17;;;23.50;40.40;;;;;;6172495;28;83298;-53
2024/02/01 02:01:16;;;;;;;34.15;21.83;;;23.50;40.40;;;;;;6156766;28;83360;-52
2024/02/01 02:04:17;;;;;;;33.25;20.45;;;23.50;40.40;;;;;;6172952;28;84363;-52
2024/02/01 02:07:17;;;;;;;30.30;18.67;;;23.40;40.50;;;;;;6172044;28;82924;-54
2024/02/01 02:10:18;;;;;;;31.15;19.63;;;23.40;40.50;;;;;;6161996;28;82971;-63
2024/02/01 02:13:18;;;;;;;30.65;18.40;;;23.40;40.50;;;;;;6167495;28;84039;-59
2024/02/01 02:16:19;;;;;;;30.65;18.50;;;23.40;40.60;;;;;;6168559;28;83497;-62
2024/02/01 02:19:20;;;;;;;30.05;17.88;;;23.40;40.60;;;;;;6169423;28;83248;-62
2024/02/01 02:22:20;;;;;;;28.83;18.92;;;23.40;40.50;;;;;;6154050;28;83320;-64
2024/02/01 02:25:21;;;;;;;25.90;17.60;;;23.40;40.50;;;;;;6172584;28;82994;-62
2024/02/01 02:28:21;;;;;;;29.70;18.08;;;23.40;40.70;;;;;;6172297;28;83571;-68
2024/02/01 02:31:22;;;;;;;25.45;16.52;;;23.40;40.70;;;;;;6173964;28;83221;-68
2024/02/01 02:34:22;;;;;;;23.23;15.95;;;23.40;40.80;;;;;;6168328;28;82962;-69
2024/02/01 02:37:23;;;;;;;23.73;15.82;;;23.40;40.70;;;;;;6169819;28;82867;-68
2024/02/01 02:40:24;;;;;;;26.75;17.27;;;23.40;40.80;;;;;;6161105;28;85266;-68
2024/02/01 02:43:24;;;;;;;25.85;17.50;;;23.40;41.00;;;;;;6154442;28;83595;-67
2024/02/01 02:46:25;;;;;;;29.60;17.25;;;23.40;40.60;;;;;;6174149;28;83055;-49
2024/02/01 02:49:26;;;;;;;28.50;17.98;;;23.40;40.60;;;;;;6174733;28;83590;-50
2024/02/01 02:52:27;;;;;;;27.90;17.38;;;23.40;40.50;;;;;;6175198;28;86507;-47
2024/02/01 02:55:27;;;;;;;26.80;18.05;;;23.40;40.60;;;;;;6161905;28;82913;-47
2024/02/01 02:58:28;;;;;;;29.65;18.95;;;23.40;40.60;;;;;;6164692;28;83053;-49
2024/02/01 03:01:28;;;;;;;26.33;16.63;;;23.40;40.60;;;;;;6175487;28;84320;-48
2024/02/01 03:04:28;;;;;;;26.98;16.92;;;23.50;40.80;;;;;;6175651;28;83190;-52
2024/02/01 03:07:29;;;;;;;28.27;17.90;;;23.40;41.50;;;;;;6174907;28;83246;-51
2024/02/01 03:10:29;;;;;;;27.23;17.50;;;23.50;40.90;;;;;;6176200;28;83504;-52
2024/02/01 03:13:30;;;;;;;26.27;17.63;;;23.50;41.00;;;;;;6164670;28;83212;-52
2024/02/01 03:16:30;;;;;;;25.98;16.85;;;23.50;41.20;;;;;;6154285;28;84268;-53
2024/02/01 03:19:33;;;;;;;22.30;14.63;;;23.50;41.50;;;;;;6153251;28;83140;-51
2024/02/01 03:22:34;;;;;;;22.50;14.70;;;23.50;41.40;;;;;;6156376;28;83456;-48
2024/02/01 03:25:37;;;;;;;21.88;14.27;;;23.50;41.30;;;;;;6151820;28;82887;-47
2024/02/01 03:28:38;;;;;;;24.92;15.00;;;23.50;41.20;;;;;;6152339;28;83145;-51
2024/02/01 03:31:39;;;;;;;22.25;14.07;;;23.50;41.10;;;;;;6151677;28;86036;-50
2024/02/01 03:34:42;;;;;;;21.38;13.32;;;23.50;41.20;;;;;;6152869;28;84292;-49
2024/02/01 03:37:42;;;;;;;21.60;13.57;;;23.50;41.20;;;;;;6152911;28;83398;-48
2024/02/01 03:40:43;;;;;;;19.00;12.80;;;23.50;41.00;;;;;;6152850;28;83547;-51
2024/02/01 03:43:43;;;;;;;19.67;13.50;;;23.40;40.90;;;;;;6152351;28;83411;-48
2024/02/01 03:46:44;;;;;;;18.80;12.60;;;23.40;40.80;;;;;;6153489;28;85643;-49
2024/02/01 03:49:44;;;;;;;19.85;12.57;;;23.40;41.00;;;;;;6153694;28;84388;-52
2024/02/01 03:52:45;;;;;;;19.55;12.75;;;23.40;41.00;;;;;;6163698;28;83112;-52
2024/02/01 03:55:51;;;;;;;18.55;12.80;;;23.40;40.90;;;;;;6150515;28;84651;-46
2024/02/01 03:58:52;;;;;;;17.67;12.18;;;23.40;41.00;;;;;;6164457;28;82930;-52
2024/02/01 04:01:53;;;;;;;19.05;13.02;;;23.40;40.90;;;;;;6151325;28;85738;-50
2024/02/01 04:04:53;;;;;;;22.20;14.00;;;23.40;40.90;;;;;;6153236;28;83465;-46
2024/02/01 04:07:54;;;;;;;21.25;14.52;;;23.40;41.10;;;;;;6163960;28;83510;-46
2024/02/01 04:10:54;;;;;;;22.73;14.18;;;23.40;41.10;;;;;;6158402;28;83239;-47
2024/02/01 04:13:55;;;;;;;22.52;14.20;;;23.40;42.10;;;;;;6164560;28;83538;-48
2024/02/01 04:16:55;;;;;;;24.20;15.35;;;23.40;41.30;;;;;;6174648;28;83463;-53
2024/02/01 04:19:56;;;;;;;25.35;15.98;;;23.30;41.10;;;;;;6150988;28;83693;-53
2024/02/01 04:22:56;;;;;;;22.27;15.18;;;23.40;41.10;;;;;;6172933;28;83989;-54
2024/02/01 04:25:57;;;;;;;23.15;14.55;;;23.40;41.00;;;;;;6162832;28;84932;-55
2024/02/01 04:28:57;;;;;;;26.02;14.75;;;23.50;40.20;;;;;;6164821;28;83900;-55
2024/02/01 04:31:58;;;;;;;20.35;13.75;;;23.50;40.00;;;;;;6162990;28;83257;-54
2024/02/01 04:35:03;;;;;;;19.45;12.43;;;23.60;40.10;;;;;;6172632;28;83366;-56
2024/02/01 04:38:04;;;;;;;20.10;12.60;;;23.60;40.10;;;;;;6170995;28;85207;-57
2024/02/01 04:41:10;;;;;;;15.85;11.45;;;23.60;39.90;;;;;;6158994;28;83543;-53
2024/02/01 04:44:11;;;;;;;16.85;10.65;;;23.70;40.20;;;;;;6158004;28;83973;-52
2024/02/01 04:47:11;;;;;;;14.05;9.27;;;23.70;40.20;;;;;;6157121;28;83227;-50
2024/02/01 04:50:13;;;;;;;16.30;9.88;;;23.70;40.00;;;;;;6161861;28;84211;-56
2024/02/01 04:53:13;;;;;;;15.45;9.57;;;23.70;39.90;;;;;;6176702;28;82737;-54
2024/02/01 04:56:14;;;;;;;14.02;8.55;;;23.80;39.90;;;;;;6176729;28;81520;-47
2024/02/01 04:59:14;;;;;;;12.30;8.23;;;23.80;40.40;;;;;;6176942;28;80521;-53
2024/02/01 05:02:15;;;;;;;10.40;6.97;;;23.80;40.00;;;;;;6172746;28;80530;-51
2024/02/01 05:05:15;;;;;;;14.85;7.90;;;23.80;40.50;;;;;;6174490;28;80682;-51
2024/02/01 05:08:16;;;;;;;10.98;6.68;;;23.80;40.70;;;;;;6175376;28;80951;-51
2024/02/01 05:11:16;;;;;;;8.65;6.60;;;23.80;41.30;;;;;;6158891;28;80414;-52
2024/02/01 05:14:17;;;;;;;11.07;6.18;;;23.90;41.80;;;;;;6168353;28;82341;-57
2024/02/01 05:17:17;;;;;;;8.52;5.50;;;23.90;42.10;;;;;;6166756;28;81064;-49
2024/02/01 05:20:18;;;;;;;10.20;6.10;;;24.00;42.10;;;;;;6150615;28;81586;-53
2024/02/01 05:23:18;;;;;;;8.45;5.88;;;24.00;42.40;;;;;;6152221;28;80206;-55
2024/02/01 05:26:19;;;;;;;7.25;5.25;;;24.00;42.20;;;;;;6151003;28;81015;-60
2024/02/01 05:29:19;;;;;;;10.07;5.72;;;24.00;42.00;;;;;;6150897;28;82642;-52
2024/02/01 05:32:20;;;;;;;7.38;5.00;;;24.00;42.00;;;;;;6146051;28;80821;-59
2024/02/01 05:35:20;;;;;;;7.45;5.15;;;24.00;42.20;;;;;;6142580;28;81699;-54
2024/02/01 05:38:24;;;;;;;8.23;5.40;;;24.10;42.10;;;;;;6146183;28;80266;-53
2024/02/01 05:41:25;;;;;;;8.27;4.80;;;24.10;42.20;;;;;;6151507;28;81557;-53
2024/02/01 05:44:25;;;;;;;7.47;5.40;;;24.10;42.20;;;;;;6149665;28;80340;-51
2024/02/01 05:47:26;;;;;;;7.88;5.03;;;24.10;42.10;;;;;;6152476;28;81110;-54
2024/02/01 05:50:26;;;;;;;7.13;5.15;;;24.10;42.00;;;;;;6151350;28;80502;-55
2024/02/01 05:53:27;;;;;;;8.02;5.20;;;24.10;42.00;;;;;;6150497;28;81360;-55
2024/02/01 05:56:28;;;;;;;7.45;5.53;;;24.00;41.90;;;;;;6148812;28;80612;-53
2024/02/01 05:59:29;;;;;;;7.18;5.30;;;24.10;41.90;;;;;;6148553;28;80795;-55
2024/02/01 06:02:29;;;;;;;8.30;5.22;;;24.00;41.90;;;;;;6140845;28;80496;-53
2024/02/01 06:05:30;;;;;;;9.27;5.68;;;24.00;42.00;;;;;;6149521;28;80594;-52
2024/02/01 06:08:30;;;;;;;9.82;6.63;;;24.00;42.00;;;;;;6141104;28;80479;-54
2024/02/01 06:11:31;;;;;;;12.18;7.60;;;23.90;42.70;;;;;;6146802;28;80512;-54
2024/02/01 06:14:31;;;;;;;10.18;7.15;;;23.90;41.80;;;;;;6160941;28;80457;-52
2024/02/01 06:17:32;;;;;;;12.63;7.72;;;23.90;42.50;;;;;;6150610;28;81899;-52
2024/02/01 06:20:34;;;;;;;12.32;7.63;;;23.80;41.70;;;;;;6126322;28;83970;-58
2024/02/01 06:23:35;;;;;;;12.38;7.55;;;23.80;41.70;;;;;;6137046;28;82811;-55
2024/02/01 06:26:35;;;;;;;10.73;7.47;;;23.80;41.50;;;;;;6151549;28;81554;-65
2024/02/01 06:29:37;;;;;;;9.82;6.78;;;23.80;41.50;;;;;;6147235;28;81547;-64
2024/02/01 06:32:38;;;;;;;9.93;6.72;;;23.80;41.70;;;;;;6153749;28;80643;-64
2024/02/01 06:35:40;;;;;;;10.05;6.55;;;23.80;41.70;;;;;;6150843;28;81267;-66
2024/02/01 06:42:04;;;;;;;10.23;6.55;;;23.80;41.70;;;;;;6152684;28;80547;-63
2024/02/01 06:48:41;;;;;;;8.98;6.32;;;23.80;41.80;;;;;;6135853;28;80608;-70
2024/02/01 06:51:43;;;;;;;11.30;7.38;;;23.80;41.60;;;;;;6153010;28;83449;-68
2024/02/01 06:54:50;;;;;;;10.00;6.55;;;23.80;41.50;;;;;;6153093;28;84944;-67
2024/02/01 07:01:13;;;;;;;9.80;6.80;;;23.70;41.60;;;;;;6152590;28;80238;-68
2024/02/01 07:04:20;;;;;;;9.70;6.57;;;23.80;41.30;;;;;;6143134;28;84998;-51
2024/02/01 07:07:29;;;;;;;10.88;6.70;;;23.70;41.30;;;;;;6165190;28;80891;-52
2024/02/01 07:10:43;;;;;;;10.88;7.50;;;23.70;41.00;;;;;;6148557;28;83440;-49
2024/02/01 07:17:05;;;;;;;10.88;6.75;;;23.80;40.80;;;;;;6138141;28;80686;-51
2024/02/01 07:20:14;;;;;;;11.93;7.35;;;23.70;40.70;;;;;;6140772;28;80584;-52
2024/02/01 07:26:41;;;;;;;11.05;7.40;;;23.80;40.50;;;;;;6139393;28;81866;-67
2024/02/01 07:59:38;;;;;;;8.95;6.15;;;23.60;40.10;;;;;;6145962;28;80521;-48
2024/02/01 08:02:49;;;;;;;10.52;6.70;;;23.60;40.00;;;;;;6137778;28;80497;-51
2024/02/01 08:09:12;;;;;;;9.88;6.30;;;23.60;39.90;;;;;;6152420;28;80685;-54
2024/02/01 08:12:12;;;;;;;9.10;5.65;;;23.60;39.80;;;;;;6167671;28;81627;-50
2024/02/01 08:15:18;;;;;;;9.00;5.80;;;23.60;39.80;;;;;;6161067;28;81121;-53
2024/02/01 08:18:19;;;;;;;8.60;5.28;;;23.60;39.70;;;;;;6140459;28;80674;-52
2024/02/01 08:21:19;;;;;;;8.73;6.38;;;23.60;39.70;;;;;;6158926;28;82759;-55
2024/02/01 08:24:22;;;;;;;8.95;5.90;;;23.60;39.80;;;;;;6159958;28;80836;-54
2024/02/01 08:27:23;;;;;;;9.65;6.28;;;23.60;39.80;;;;;;6153291;28;80586;-53
2024/02/01 08:30:26;;;;;;;8.48;6.28;;;23.60;39.80;;;;;;6153326;28;80927;-52
2024/02/01 08:33:28;;;;;;;9.30;6.72;;;23.50;39.80;;;;;;6153100;28;83584;-52
2024/02/01 08:36:28;;;;;;;9.85;6.05;;;23.50;39.80;;;;;;6152203;28;80807;-65
2024/02/01 08:39:31;;;;;;;7.90;5.68;;;23.50;39.80;;;;;;6141387;28;80685;-64
2024/02/01 08:42:32;;;;;;;9.45;6.55;;;23.50;39.80;;;;;;6141837;28;80589;-65
2024/02/01 08:45:37;;;;;;;9.45;6.53;;;23.50;39.70;;;;;;6152998;28;81109;-65
2024/02/01 08:48:39;;;;;;;9.73;6.78;;;23.50;39.50;;;;;;6144109;28;80747;-65
2024/02/01 08:51:43;;;;;;;10.23;6.47;;;23.50;40.20;;;;;;6149662;28;80482;-64
2024/02/01 08:54:44;;;;;;;9.60;5.97;;;23.50;39.50;;;;;;6153003;28;80882;-68
2024/02/01 08:57:44;;;;;;;9.68;6.25;;;23.50;39.50;;;;;;6135807;28;82035;-68
2024/02/01 09:00:45;;;;;;;9.18;6.50;;;23.50;39.40;;;;;;6140004;28;81635;-67
2024/02/01 09:03:45;;;;;;;9.07;6.47;;;23.50;39.40;;;;;;6151852;28;80612;-67
2024/02/01 09:06:53;;;;;;;8.50;6.28;;;23.50;40.00;;;;;;6135601;28;81171;-68
2024/02/01 09:09:54;;;;;;;9.82;6.55;;;23.50;39.60;;;;;;6146290;28;80695;-68
2024/02/01 09:12:55;;;;;;;11.02;6.78;;;23.50;39.60;;;;;;6146694;28;80389;-64
2024/02/01 09:15:56;;;;;;;10.82;6.72;;;23.50;39.60;;;;;;6150378;28;80649;-63
2024/02/01 09:18:56;;;;;;;10.93;6.88;;;23.50;39.50;;;;;;6128088;28;81827;-66
2024/02/01 09:21:57;;;;;;;9.57;6.72;;;23.50;39.70;;;;;;6151131;28;80411;-68
2024/02/01 09:24:58;;;;;;;9.88;6.47;;;23.50;39.90;;;;;;6153840;28;80496;-63
2024/02/01 09:28:00;;;;;;;9.38;6.40;;;23.50;39.80;;;;;;6148768;28;80489;-64
2024/02/01 09:31:02;;;;;;;7.93;6.00;;;23.50;39.90;;;;;;6155422;28;80764;-63
2024/02/01 09:34:04;;;;;;;9.30;6.50;;;23.50;39.80;;;;;;6152097;28;80790;-65
2024/02/01 09:37:05;;;;;;;10.27;6.85;;;23.50;39.70;;;;;;6144775;28;81271;-64
2024/02/01 09:40:10;;;;;;;11.25;6.60;;;23.50;39.60;;;;;;6149554;28;80949;-66
2024/02/01 09:43:22;;;;;;;12.25;6.75;;;23.50;39.80;;;;;;6140853;28;84935;-65
2024/02/01 09:46:23;;;;;;;10.13;7.20;;;23.50;39.80;;;;;;6171460;28;80756;-67
2024/02/01 09:49:23;;;;;;;10.50;6.07;;;23.50;39.90;;;;;;6153783;28;81488;-65
2024/02/01 09:52:24;;;;;;;13.02;6.85;;;23.60;40.10;;;;;;6142717;28;81546;-65
2024/02/01 09:55:25;;;;;;;10.13;6.63;;;23.50;39.90;;;;;;6153068;28;80628;-64
2024/02/01 09:58:28;;;;;;;10.32;6.18;;;23.60;39.90;;;;;;6151082;28;81014;-64
2024/02/01 10:01:29;;;;;;;7.22;5.93;;;23.60;40.20;;;;;;6152390;28;80843;-64
2024/02/01 10:04:29;;;;;;;10.95;6.30;;;23.60;40.00;;;;;;6146551;28;82826;-65
2024/02/01 10:07:30;;;;;;;9.75;6.30;;;23.60;39.80;;;;;;6138416;28;86426;-63
2024/02/01 10:10:30;;;;;;;7.82;5.78;;;23.60;39.90;;;;;;6151760;28;80410;-64
2024/02/01 10:13:31;;;;;;;7.40;5.25;;;23.60;39.90;;;;;;6149817;28;80191;-61
2024/02/01 10:16:35;;;;;;;7.78;5.47;;;23.60;40.30;;;;;;6151267;28;86349;-64
2024/02/01 10:19:37;;;;;;;9.57;6.03;;;23.60;40.60;;;;;;6148029;28;81629;-64
2024/02/01 10:22:37;;;;;;;9.82;5.80;;;23.60;40.60;;;;;;6153741;28;80353;-65
2024/02/01 10:25:39;;;;;;;7.75;5.20;;;23.60;40.70;;;;;;6153679;28;80460;-59
2024/02/01 10:28:39;;;;;;;9.80;5.45;;;23.60;40.90;;;;;;6152108;28;81049;-58
2024/02/01 10:31:40;;;;;;;7.40;5.30;;;23.70;41.30;;;;;;6153784;28;81857;-55
2024/02/01 10:34:41;;;;;;;8.30;5.68;;;23.70;41.50;;;;;;6149535;28;81584;-55
2024/02/01 10:37:42;;;;;;;6.70;4.78;;;23.70;41.80;;;;;;6152851;28;82396;-56
2024/02/01 10:40:43;;;;;;;9.10;5.07;;;23.80;42.30;;;;;;6153929;28;80382;-56
2024/02/01 10:43:47;;;;;;;7.63;5.43;;;23.80;42.40;;;;;;6150806;28;80544;-65
2024/02/01 10:46:47;;;;;;;7.28;4.95;;;23.80;42.10;;;;;;6153513;28;82631;-66
2024/02/01 10:49:54;;;;;;;7.07;5.13;;;23.80;42.20;;;;;;6146087;28;81616;-67
2024/02/01 10:52:54;;;;;;;7.25;4.97;;;23.80;42.80;;;;;;6156689;28;83781;-69
2024/02/01 10:55:55;;;;;;;6.95;4.72;;;23.80;42.90;;;;;;6156121;28;80462;-66
2024/02/01 10:58:55;;;;;;;8.02;5.47;;;23.80;42.90;;;;;;6157203;28;81287;-67
2024/02/01 11:01:56;;;;;;;6.35;4.32;;;23.80;43.30;;;;;;6144258;28;81207;-67
2024/02/01 11:04:56;;;;;;;5.45;4.45;;;23.80;43.20;;;;;;6154639;28;80764;-66
2024/02/01 11:07:57;;;;;;;8.75;5.35;;;23.90;43.30;;;;;;6155593;28;81210;-70
2024/02/01 11:10:58;;;;;;;5.50;4.18;;;23.90;43.30;;;;;;6151866;28;80345;-66
2024/02/01 11:13:59;;;;;;;7.00;4.68;;;23.90;43.60;;;;;;6156903;28;80473;-64
2024/02/01 11:17:02;;;;;;;8.20;4.80;;;23.90;43.50;;;;;;6147932;28;83423;-68
2024/02/01 11:20:04;;;;;;;7.43;4.88;;;23.90;43.30;;;;;;6153295;28;80734;-55
2024/02/01 11:23:06;;;;;;;7.25;5.28;;;23.90;43.10;;;;;;6155302;28;80523;-56
2024/02/01 11:26:06;;;;;;;7.97;4.70;;;24.00;43.30;;;;;;6155001;28;82207;-54
2024/02/01 11:29:08;;;;;;;6.45;4.63;;;23.90;43.20;;;;;;6155285;28;82032;-52
2024/02/01 11:32:08;;;;;;;7.60;4.57;;;24.00;43.30;;;;;;6152293;28;80327;-55
2024/02/01 11:35:10;;;;;;;6.38;4.82;;;23.90;43.40;;;;;;6156174;28;81133;-54
2024/02/01 11:38:10;;;;;;;5.97;4.70;;;23.90;43.40;;;;;;6149000;28;81012;-57
2024/02/01 11:41:11;;;;;;;7.72;5.05;;;24.00;43.50;;;;;;6154692;28;80467;-54
2024/02/01 11:44:11;;;;;;;8.25;4.60;;;24.00;43.40;;;;;;6138929;28;81753;-53
2024/02/01 11:47:12;;;;;;;7.13;4.55;;;24.00;43.50;;;;;;6144405;28;80675;-54
2024/02/01 11:50:13;;;;;;;6.88;5.40;;;24.00;43.40;;;;;;6148443;28;80109;-51
2024/02/01 11:53:13;;;;;;;6.80;5.20;;;24.00;43.30;;;;;;6156130;28;80667;-55
2024/02/01 11:56:14;;;;;;;5.68;4.28;;;24.00;43.30;;;;;;6154966;28;81130;-53
2024/02/01 11:59:14;;;;;;;5.97;4.75;;;24.00;43.30;;;;;;6149917;28;80949;-55
2024/02/01 12:02:18;;;;;;;8.00;4.43;;;24.00;43.30;;;;;;6151230;28;81037;-52
2024/02/01 12:05:19;;;;;;;7.30;5.03;;;24.00;43.40;;;;;;6154976;28;80804;-52
2024/02/01 12:08:20;;;;;;;5.30;4.55;;;24.00;43.30;;;;;;6154305;28;80402;-56
2024/02/01 12:11:24;;;;;;;7.43;4.60;;;24.00;43.20;;;;;;6154625;28;80333;-54
2024/02/01 12:14:24;;;;;;;7.00;4.45;;;24.00;43.40;;;;;;6154146;28;81393;-55
2024/02/01 12:17:25;;;;;;;5.93;4.50;;;24.00;43.20;;;;;;6151908;28;80587;-53
2024/02/01 12:20:28;;;;;;;7.05;4.72;;;24.00;43.10;;;;;;6153660;28;80634;-52
2024/02/01 12:23:33;;;;;;;7.82;4.70;;;24.00;43.00;;;;;;6154487;28;80918;-56
2024/02/01 12:26:35;;;;;;;6.25;4.70;;;24.00;43.60;;;;;;6142924;28;81052;-56
2024/02/01 12:29:36;;;;;;;6.55;4.95;;;24.00;43.00;;;;;;6153544;28;80422;-54
2024/02/01 12:32:43;;;;;;;5.68;4.68;;;24.00;42.90;;;;;;6143656;28;82272;-54
2024/02/01 12:35:44;;;;;;;6.38;4.95;;;24.10;42.90;;;;;;6150984;28;82907;-52
2024/02/01 12:38:44;;;;;;;7.70;5.50;;;24.10;42.80;;;;;;6141114;28;81111;-53
2024/02/01 12:41:48;;;;;;;12.75;5.68;;;24.10;42.80;;;;;;6145648;28;81591;-55
2024/02/01 12:44:48;;;;;;;15.57;7.25;;;24.10;42.80;;;;;;6144853;28;80693;-52
2024/02/01 12:47:51;;;;;;;21.33;8.88;;;24.10;42.80;;;;;;6150758;28;83112;-53
2024/02/01 12:50:52;;;;;;;27.70;10.52;;;24.10;42.90;;;;;;6153785;28;81847;-53
2024/02/01 12:53:54;;;;;;;26.95;10.25;;;24.10;43.00;;;;;;6143334;28;83323;-73
2024/02/01 12:56:55;;;;;;;27.80;10.10;;;24.10;43.00;;;;;;6151899;28;83929;-70
2024/02/01 12:59:58;;;;;;;29.63;9.90;;;24.10;43.10;;;;;;6148775;28;83655;-68
2024/02/01 13:02:59;;;;;;;30.98;10.30;;;24.20;43.10;;;;;;6146427;28;83301;-69
2024/02/01 13:06:00;;;;;;;28.52;9.07;;;24.10;43.20;;;;;;6151208;28;82792;-68
2024/02/01 13:09:00;;;;;;;30.05;9.80;;;24.10;43.20;;;;;;6154184;28;83282;-73
2024/02/01 13:12:18;;;;;;;27.55;8.63;;;24.20;43.10;;;;;;6154709;28;80723;-67
2024/02/01 13:15:18;;;;;;;24.15;8.15;;;24.10;43.10;;;;;;6139889;28;80825;-67
2024/02/01 13:18:19;;;;;;;26.63;9.07;;;24.10;43.10;;;;;;6143538;28;81470;-68
2024/02/01 13:21:20;;;;;;;20.40;7.50;;;24.10;43.00;;;;;;6151658;28;80402;-65
2024/02/01 13:24:22;;;;;;;16.83;7.10;;;24.10;43.10;;;;;;6154532;28;83256;-66
2024/02/01 13:27:22;;;;;;;15.73;6.53;;;24.10;43.10;;;;;;6151852;28;81287;-67
2024/02/01 13:30:26;;;;;;;20.75;7.65;;;24.10;43.60;;;;;;6148763;28;81914;-65
2024/02/01 13:33:26;;;;;;;18.70;7.68;;;24.10;43.50;;;;;;6143567;28;81159;-68
2024/02/01 13:36:27;;;;;;;19.50;7.75;;;24.10;43.30;;;;;;6150125;28;80597;-71
2024/02/01 13:39:32;;;;;;;23.25;7.50;;;24.10;43.40;;;;;;6140091;28;80825;-71
2024/02/01 13:42:32;;;;;;;15.50;6.80;;;24.10;43.30;;;;;;6148730;28;80966;-71
2024/02/01 13:45:33;;;;;;;15.93;6.00;;;24.10;43.30;;;;;;6150595;28;80778;-71
2024/02/01 13:48:33;;;;;;;19.88;7.82;;;24.10;43.30;;;;;;6149922;28;80653;-53
2024/02/01 13:51:38;;;;;;;16.60;7.60;;;24.10;43.30;;;;;;6150435;28;80833;-53
2024/02/01 13:54:39;;;;;;;16.50;6.20;;;24.10;43.10;;;;;;6151218;28;80803;-52
2024/02/01 13:57:39;;;;;;;13.77;6.18;;;24.10;43.10;;;;;;6147980;28;80738;-57
2024/02/01 14:00:40;;;;;;;14.63;6.88;;;24.10;43.10;;;;;;6148415;28;81295;-54
2024/02/01 14:03:40;;;;;;;17.17;6.38;;;24.10;43.00;;;;;;6147547;28;80452;-55
2024/02/01 14:06:41;;;;;;;13.45;6.50;;;24.10;42.90;;;;;;6149774;28;80539;-54
2024/02/01 14:09:42;;;;;;;14.95;6.07;;;24.00;42.90;;;;;;6140575;28;80694;-52
2024/02/01 14:12:42;;;;;;;13.70;6.60;;;24.00;42.80;;;;;;6145832;28;81320;-52
2024/02/01 14:15:43;;;;;;;13.50;6.35;;;24.10;42.90;;;;;;6137737;28;83014;-56
2024/02/01 14:18:43;;;;;;;15.10;7.18;;;24.00;42.80;;;;;;6142088;28;80183;-55
2024/02/01 14:21:44;;;;;;;15.40;6.05;;;24.00;43.10;;;;;;6138734;28;86497;-54
2024/02/01 14:24:44;;;;;;;10.25;5.68;;;24.00;43.20;;;;;;6136224;28;83256;-68
2024/02/01 14:27:47;;;;;;;19.38;6.65;;;24.10;43.40;;;;;;6156424;28;81680;-69
2024/02/01 14:30:48;;;;;;;12.35;5.18;;;24.00;43.40;;;;;;6150683;28;80750;-74
2024/02/01 14:33:49;;;;;;;12.43;5.97;;;24.00;44.20;;;;;;6152544;28;81064;-69
2024/02/01 14:36:49;;;;;;;13.77;5.60;;;24.10;43.60;;;;;;6153094;28;81478;-67
2024/02/01 14:39:50;;;;;;;10.00;5.35;;;24.20;43.60;;;;;;6153939;28;81432;-72
2024/02/01 14:42:50;;;;;;;11.13;5.32;;;24.20;43.70;;;;;;6157388;28;80946;-72
2024/02/01 14:45:52;;;;;;;15.48;4.85;;;24.20;43.90;;;;;;6148712;28;81757;-72
2024/02/01 14:48:53;;;;;;;10.23;5.35;;;24.20;43.90;;;;;;6156073;28;81681;-72
2024/02/01 14:51:54;;;;;;;6.88;4.50;;;24.20;43.90;;;;;;6157632;28;80559;-67
2024/02/01 14:54:55;;;;;;;13.20;5.30;;;24.30;44.00;;;;;;6153353;28;82547;-67
2024/02/01 14:57:55;;;;;;;12.40;6.43;;;24.30;43.90;;;;;;6154559;28;80543;-64
2024/02/01 15:00:56;;;;;;;15.52;7.07;;;24.30;43.90;;;;;;6148990;28;85199;-65
2024/02/01 15:03:57;;;;;;;20.20;8.70;;;24.30;43.80;;;;;;6154567;28;80792;-68
2024/02/01 15:06:57;;;;;;;23.30;8.50;;;24.30;43.70;;;;;;6155421;28;81602;-63
2024/02/01 15:09:58;;;;;;;22.90;9.23;;;24.30;43.80;;;;;;6156329;28;80302;-66
2024/02/01 15:12:58;;;;;;;24.27;9.15;;;24.30;43.70;;;;;;6153694;28;80760;-67
2024/02/01 15:15:59;;;;;;;29.02;9.20;;;24.30;43.70;;;;;;6141398;28;80489;-70
2024/02/01 15:19:00;;;;;;;26.60;8.77;;;24.30;43.70;;;;;;6153080;28;80374;-61
2024/02/01 15:22:01;;;;;;;21.80;9.02;;;24.30;43.70;;;;;;6151835;28;81869;-67
2024/02/01 15:25:02;;;;;;;27.10;9.40;;;24.30;43.70;;;;;;6150453;28;80568;-69
2024/02/01 15:28:03;;;;;;;27.63;8.95;;;24.30;43.60;;;;;;6153089;28;81055;-67
2024/02/01 15:31:05;;;;;;;16.30;7.40;;;24.30;43.50;;;;;;6149008;28;82816;-66
2024/02/01 15:34:06;;;;;;;20.08;9.02;;;24.30;43.50;;;;;;6149326;28;80836;-67
2024/02/01 15:37:07;;;;;;;19.70;9.18;;;24.40;43.50;;;;;;6155042;28;81612;-69
2024/02/01 15:40:07;;;;;;;22.33;8.73;;;24.30;43.40;;;;;;6155449;28;84822;-63
2024/02/01 15:43:08;;;;;;;17.45;7.60;;;24.30;43.40;;;;;;6139134;28;81621;-65
2024/02/01 15:46:08;;;;;;;22.70;8.80;;;24.30;43.30;;;;;;6154961;28;80463;-67
2024/02/01 15:49:11;;;;;;;17.38;7.72;;;24.30;43.40;;;;;;6157422;28;80622;-68
2024/02/01 15:52:13;;;;;;;14.32;7.35;;;24.30;43.30;;;;;;6152745;28;80795;-68
2024/02/01 15:55:13;;;;;;;20.60;7.55;;;24.40;43.40;;;;;;6157622;28;81819;-66
2024/02/01 15:58:14;;;;;;;15.85;7.50;;;24.40;43.30;;;;;;6153151;28;80714;-68
2024/02/01 16:01:14;;;;;;;14.85;6.75;;;24.30;43.30;;;;;;6137936;28;80734;-71
2024/02/01 16:04:15;;;;;;;17.13;6.40;;;24.30;43.20;;;;;;6153133;28;80489;-69
2024/02/01 16:07:15;;;;;;;14.52;6.78;;;24.30;43.40;;;;;;6153021;28;80630;-71
2024/02/01 16:10:16;;;;;;;13.50;6.03;;;24.30;43.30;;;;;;6154868;28;80693;-71
2024/02/01 16:13:16;;;;;;;13.25;6.53;;;24.30;43.20;;;;;;6151356;28;81229;-72
2024/02/01 16:16:17;;;;;;;10.77;5.47;;;24.30;43.10;;;;;;6153870;28;80832;-70
2024/02/01 16:19:17;;;;;;;12.88;6.40;;;24.30;43.00;;;;;;6154004;28;80470;-70